createdAt,value
2022-08-25T00:02:55.175Z,331.42138
2022-08-25T00:07:57.560Z,306.35294
2022-08-25T00:12:59.163Z,331.42138
2022-08-25T00:18:00.755Z,341.41935
2022-08-25T00:23:02.449Z,354.66667
2022-08-25T00:28:08.256Z,333.87342
2022-08-25T00:33:10.357Z,205.01695
2022-08-25T00:38:12.329Z,315.08434
2022-08-25T00:43:13.923Z,300.06936
2022-08-25T00:48:15.545Z,374.76923
2022-08-25T00:53:17.127Z,346.61438
2022-08-25T00:58:18.763Z,336.35669
2022-08-25T01:03:20.384Z,566.22222
2022-08-25T01:08:21.989Z,374.76923
2022-08-25T01:13:23.602Z,461.64706
2022-08-25T01:18:25.208Z,479.65217
2022-08-25T01:23:26.815Z,536.30769
2022-08-25T01:28:28.420Z,547.92157
2022-08-25T01:33:30.101Z,417.84615
2022-08-25T01:38:31.743Z,276.97297
2022-08-25T01:43:33.350Z,275.1828
2022-08-25T01:48:34.976Z,278.78261
2022-08-25T01:53:36.601Z,259.89744
2022-08-25T01:58:38.184Z,280.61202
2022-08-25T02:03:42.077Z,184.625
2022-08-25T02:08:44.092Z,245.96078
2022-08-25T02:13:45.705Z,321.91411
2022-08-25T02:18:47.482Z,377.80282
2022-08-25T02:23:49.142Z,368.82759
2022-08-25T02:28:50.763Z,380.87943
2022-08-25T02:33:52.354Z,421.51938
2022-08-25T02:38:53.968Z,365.91781
2022-08-25T02:43:55.593Z,417.84615
2022-08-25T02:48:57.174Z,333.87342
2022-08-25T02:53:58.816Z,298.02299
2022-08-25T02:59:00.440Z,344
2022-08-25T03:04:02.356Z,300.06936
2022-08-25T03:09:03.982Z,247.44828
2022-08-25T03:14:05.594Z,268.21053
2022-08-25T03:19:07.194Z,326.6087
2022-08-25T03:24:09.028Z,278.78261
2022-08-25T03:29:10.701Z,195.42857
2022-08-25T03:34:12.304Z,250.46766
2022-08-25T03:39:13.901Z,344
2022-08-25T03:44:15.546Z,315.08434
2022-08-25T03:49:17.163Z,417.84615
2022-08-25T03:54:18.761Z,429.03937
2022-08-25T03:59:20.549Z,341.41935
2022-08-25T04:04:22.171Z,298.02299
2022-08-25T04:09:23.923Z,304.23392
2022-08-25T04:14:25.499Z,269.92593
2022-08-25T04:19:27.099Z,192.3871
2022-08-25T04:24:28.918Z,165.58273
2022-08-25T04:29:30.496Z,140.80511
2022-08-25T04:34:32.122Z,152.10811
2022-08-25T04:39:33.743Z,219
2022-08-25T04:44:35.370Z,282.46154
2022-08-25T04:49:36.952Z,210.66667
2022-08-25T04:54:38.536Z,212.99563
2022-08-25T04:59:40.121Z,220.23318
2022-08-25T05:04:41.727Z,209.51724
2022-08-25T05:09:43.349Z,221.47748
2022-08-25T05:14:44.978Z,288.13408
2022-08-25T05:19:46.548Z,238.73684
2022-08-25T05:24:48.115Z,185.56863
2022-08-25T05:29:49.698Z,164
2022-08-25T05:34:51.318Z,160.14035
2022-08-25T05:39:53.015Z,155.68385
2022-08-25T05:44:54.688Z,179.1145
2022-08-25T05:49:56.324Z,178.22053
2022-08-25T05:54:58.363Z,150.02007
2022-08-25T06:00:00.036Z,120
2022-08-25T06:05:01.769Z,125.71091
2022-08-25T06:10:03.373Z,157.88889
2022-08-25T06:15:04.938Z,125.71091
2022-08-25T06:20:06.541Z,135.90031
2022-08-25T06:25:08.881Z,142.70968
2022-08-25T06:30:10.523Z,142.07074
2022-08-25T06:35:12.515Z,116.54902
2022-08-25T06:40:14.123Z,120
2022-08-25T06:45:15.845Z,130.10272
2022-08-25T06:50:17.391Z,160.14035
2022-08-25T06:55:18.991Z,143.35275
2022-08-25T07:00:20.655Z,153.52381
2022-08-25T07:05:33.673Z,140.17834
2022-08-25T07:10:42.445Z,144
2022-08-25T07:15:50.076Z,149.33333
2022-08-25T07:20:56.036Z,123.06977
2022-08-25T07:25:57.644Z,101.54476
2022-08-25T07:30:59.293Z,96.47525
2022-08-25T07:36:01.149Z,92.43373
2022-08-25T07:41:02.786Z,99.16373
2022-08-25T07:46:04.391Z,90.66667
2022-08-25T07:51:05.959Z,86.26328
2022-08-25T07:56:10.202Z,77.91304
2022-08-25T08:01:11.806Z,96.09877
2022-08-25T08:06:13.386Z,87.25581
2022-08-25T08:11:14.950Z,96.47525
2022-08-25T08:16:16.620Z,100.743
2022-08-25T08:21:19.944Z,90.66667
2022-08-25T08:26:22.525Z,84.9611
2022-08-25T08:31:38.629Z,77.33333
2022-08-25T08:36:40.324Z,80.28319
2022-08-25T08:42:09.488Z,74.78556
2022-08-25T08:47:13.433Z,71.53623
2022-08-25T08:52:15.912Z,71.53623
2022-08-25T08:57:18.203Z,75.62393
2022-08-25T09:02:37.867Z,84
2022-08-25T09:07:42.320Z,88.2623
2022-08-25T09:12:47.546Z,85.93548
2022-08-25T09:17:53.592Z,86.59259
2022-08-25T09:22:56.667Z,123.06977
2022-08-25T09:28:00.328Z,104
2022-08-25T09:33:01.990Z,101.14286
2022-08-25T09:38:03.619Z,95.35135
2022-08-25T09:43:05.243Z,109.14745
2022-08-25T09:48:07.117Z,115.11111
2022-08-25T09:53:15.220Z,95.35135
2022-08-25T09:58:19.408Z,90.31829
2022-08-25T10:03:24.638Z,88.60094
2022-08-25T10:08:26.738Z,82.42697
2022-08-25T10:13:28.427Z,88.60094
2022-08-25T10:18:30.099Z,87.92523
2022-08-25T10:23:31.759Z,90.66667
2022-08-25T10:28:33.352Z,91.72182
2022-08-25T10:33:34.953Z,106.53298
2022-08-25T10:38:37.219Z,104.83551
2022-08-25T10:43:39.038Z,99.55556
2022-08-25T10:48:40.690Z,152.81356
2022-08-25T10:53:43.020Z,113.69697
2022-08-25T10:58:44.634Z,116.54902
2022-08-25T11:03:46.227Z,106.96296
2022-08-25T11:08:49.179Z,96.8536
2022-08-25T11:13:50.751Z,119.49858
2022-08-25T11:18:52.588Z,112.30601
2022-08-25T11:23:54.194Z,97.61596
2022-08-25T11:28:56.588Z,115.58774
2022-08-25T11:33:58.477Z,104
2022-08-25T11:39:00.840Z,111.3913
2022-08-25T11:44:03.074Z,96.09877
2022-08-25T11:49:04.676Z,100.743
2022-08-25T11:54:07.753Z,111.3913
2022-08-25T11:59:09.394Z,110.48649
2022-08-25T12:04:11.056Z,90.31829
2022-08-25T12:09:12.726Z,95.72414
2022-08-25T12:14:14.323Z,126.24852
2022-08-25T12:19:15.945Z,127.8806
2022-08-25T12:24:18.666Z,103.17313
2022-08-25T12:29:21.482Z,95.72414
2022-08-25T12:34:26.698Z,101.94872
2022-08-25T12:39:28.666Z,96.47525
2022-08-25T12:44:30.283Z,96.8536
2022-08-25T12:49:31.934Z,93.87835
2022-08-25T12:54:33.526Z,92.07692
2022-08-25T12:59:35.396Z,78.49782
2022-08-25T13:04:37.017Z,82.42697
2022-08-25T13:09:38.651Z,79.98234
2022-08-25T13:14:40.285Z,90.31829
2022-08-25T13:19:41.872Z,96.47525
2022-08-25T13:24:43.573Z,90.66667
2022-08-25T13:29:46.344Z,95.35135
2022-08-25T13:39:56.161Z,81.5
2022-08-25T13:44:58.542Z,92.07692
2022-08-25T13:50:00.848Z,112.76712
2022-08-25T13:55:04.794Z,114.16575
2022-08-25T14:00:06.605Z,93.87835
2022-08-25T14:05:11.202Z,78.79212
2022-08-25T14:10:12.814Z,73.68421
2022-08-25T14:15:14.452Z,89.28302
2022-08-25T14:20:16.069Z,116.06704
2022-08-25T14:25:17.675Z,99.16373
2022-08-25T14:30:28.872Z,121.52161
2022-08-25T14:35:31.408Z,112.30601
2022-08-25T14:40:34.469Z,104
2022-08-25T14:45:36.267Z,118.50425
2022-08-25T14:50:37.920Z,109.5914
2022-08-25T14:55:42.946Z,120.5043
2022-08-25T15:00:45.657Z,110.93767
2022-08-25T15:05:49.046Z,117.52113
2022-08-25T15:10:52.045Z,106.53298
2022-08-25T15:15:53.714Z,97.61596
2022-08-25T15:20:55.300Z,108.70588
2022-08-25T15:25:58.882Z,109.5914
2022-08-25T15:31:00.487Z,100.34518
2022-08-25T15:36:02.335Z,116.54902
2022-08-25T15:41:04.865Z,105.25654
2022-08-25T15:46:06.790Z,133.53846
2022-08-25T15:51:08.413Z,157.14879
2022-08-25T15:56:11.196Z,153.52381
2022-08-25T16:01:12.917Z,147.97351
2022-08-25T16:06:14.635Z,147.97351
2022-08-25T16:11:16.285Z,180.92308
2022-08-25T16:16:17.964Z,172.14815
2022-08-25T16:21:20.235Z,186.51969
2022-08-25T16:26:21.851Z,177.33333
2022-08-25T16:31:23.678Z,193.39271
2022-08-25T16:36:25.459Z,205.01695
2022-08-25T16:41:28.921Z,217.77778
2022-08-25T16:46:33.666Z,224
2022-08-25T16:51:35.317Z,209.51724
2022-08-25T16:56:37.069Z,216.56637
2022-08-25T17:01:38.845Z,227.87097
2022-08-25T17:06:51.790Z,227.87097
2022-08-25T17:11:54.539Z,233.20188
2022-08-25T17:16:56.169Z,240.15385
2022-08-25T17:21:57.765Z,216.56637
2022-08-25T17:26:59.365Z,194.4065
2022-08-25T17:32:00.981Z,205.01695
2022-08-25T17:37:02.585Z,212.99563
2022-08-25T17:42:04.783Z,206.12766
2022-08-25T17:47:06.448Z,259.89744
2022-08-25T17:52:09.254Z,252
2022-08-25T17:57:10.883Z,252
2022-08-25T18:02:14.721Z,263.17098
2022-08-25T18:07:16.467Z,310.66667
2022-08-25T18:12:18.875Z,306.35294
2022-08-25T18:17:22.922Z,304.23392
2022-08-25T18:22:24.664Z,310.66667
2022-08-25T18:27:26.237Z,294
2022-08-25T18:32:27.835Z,282.46154
2022-08-25T18:37:30.904Z,315.08434
2022-08-25T18:42:32.777Z,286.22222
2022-08-25T18:47:34.440Z,253.54774
2022-08-25T18:52:36.056Z,278.78261
2022-08-25T18:57:42.662Z,269.92593
2022-08-25T19:02:46.914Z,271.65957
2022-08-25T19:07:51.891Z,286.22222
2022-08-25T19:12:54.913Z,282.46154
2022-08-25T19:17:58.658Z,266.51309
2022-08-25T19:23:00.189Z,259.89744
2022-08-25T19:28:02.048Z,243.02913
2022-08-25T19:33:03.651Z,225.27854
2022-08-25T19:38:19.987Z,240.15385
2022-08-25T19:43:37.666Z,258.28571
2022-08-25T19:48:40.162Z,263.17098
2022-08-25T19:53:41.775Z,230.51163
2022-08-25T19:58:44.503Z,192.3871
2022-08-25T20:03:46.073Z,151.40741
2022-08-25T20:08:47.693Z,159.38462
2022-08-25T20:14:03.836Z,208.37768
2022-08-25T20:19:05.866Z,209.51724
2022-08-25T20:24:11.029Z,227.87097
2022-08-25T20:29:12.649Z,252
2022-08-25T20:34:14.264Z,255.11111
2022-08-25T20:39:15.906Z,244.4878
2022-08-25T20:44:17.550Z,245.96078
2022-08-25T20:49:19.160Z,187.47826
2022-08-25T20:54:20.773Z,162.43972
2022-08-25T20:59:22.423Z,180.01533
2022-08-25T21:04:24.438Z,220.23318
2022-08-25T21:09:26.099Z,231.85047
2022-08-25T21:14:27.720Z,241.58454
2022-08-25T21:19:30.036Z,206.12766
2022-08-25T21:24:31.923Z,241.58454
2022-08-25T21:29:33.559Z,187.47826
2022-08-25T21:34:35.234Z,180.01533
2022-08-25T21:39:37.133Z,186.51969
2022-08-25T21:44:39.147Z,197.49794
2022-08-25T21:49:40.828Z,294
2022-08-25T21:54:42.447Z,363.04762
2022-08-25T21:59:44.054Z,284.33149
2022-08-25T22:04:45.659Z,326.6087
2022-08-25T22:09:47.268Z,384
2022-08-25T22:14:48.899Z,266.51309
2022-08-25T22:19:53.687Z,448.91803
2022-08-25T22:24:55.691Z,360.21622
2022-08-25T22:29:57.557Z,282.46154
2022-08-25T22:34:59.143Z,310.66667
2022-08-25T22:40:00.945Z,290.06742
2022-08-25T22:45:03.274Z,230.51163
2022-08-25T22:50:04.876Z,247.44828
2022-08-25T22:55:06.524Z,346.61438
2022-08-25T23:00:12.868Z,368.82759
2022-08-25T23:05:14.939Z,292.0226
2022-08-25T23:10:16.653Z,302.13953
2022-08-25T23:15:18.257Z,341.41935
2022-08-25T23:20:19.924Z,255.11111
2022-08-25T23:25:23.051Z,349.26316
2022-08-25T23:30:27.130Z,396.94118
2022-08-25T23:35:28.909Z,351.94702
2022-08-25T23:40:31.205Z,547.92157
2022-08-25T23:45:33.218Z,425.25
2022-08-25T23:50:34.841Z,479.65217
2022-08-25T23:55:36.417Z,444.81301
